sensor_id;sensor_type;location;lat;lon;timestamp;P1;durP1;ratioP1;P2;durP2;ratioP2
22644;SDS011;11489;50.834;6.752;2023-05-18T00:02:06;9.55;;;3.70;;
22644;SDS011;11489;50.834;6.752;2023-05-18T00:04:33;17.20;;;3.97;;
22644;SDS011;11489;50.834;6.752;2023-05-18T00:06:59;10.02;;;3.63;;
22644;SDS011;11489;50.834;6.752;2023-05-18T00:09:29;9.93;;;3.40;;
22644;SDS011;11489;50.834;6.752;2023-05-18T00:11:55;8.50;;;3.58;;
22644;SDS011;11489;50.834;6.752;2023-05-18T00:14:22;6.80;;;3.28;;
22644;SDS011;11489;50.834;6.752;2023-05-18T00:16:48;10.02;;;3.80;;
22644;SDS011;11489;50.834;6.752;2023-05-18T00:19:15;8.70;;;4.30;;
22644;SDS011;11489;50.834;6.752;2023-05-18T00:21:44;9.68;;;3.55;;
22644;SDS011;11489;50.834;6.752;2023-05-18T00:24:11;13.77;;;3.95;;
22644;SDS011;11489;50.834;6.752;2023-05-18T00:26:37;14.65;;;4.75;;
22644;SDS011;11489;50.834;6.752;2023-05-18T00:29:04;7.80;;;3.80;;
22644;SDS011;11489;50.834;6.752;2023-05-18T00:31:31;11.57;;;4.10;;
22644;SDS011;11489;50.834;6.752;2023-05-18T00:34:07;7.20;;;3.53;;
22644;SDS011;11489;50.834;6.752;2023-05-18T00:36:34;11.33;;;3.97;;
22644;SDS011;11489;50.834;6.752;2023-05-18T00:39:00;12.80;;;3.80;;
22644;SDS011;11489;50.834;6.752;2023-05-18T00:41:27;7.57;;;3.80;;
22644;SDS011;11489;50.834;6.752;2023-05-18T00:43:53;6.30;;;3.33;;
22644;SDS011;11489;50.834;6.752;2023-05-18T00:46:20;9.90;;;3.80;;
22644;SDS011;11489;50.834;6.752;2023-05-18T00:48:47;9.83;;;3.73;;
22644;SDS011;11489;50.834;6.752;2023-05-18T00:51:15;10.90;;;3.97;;
22644;SDS011;11489;50.834;6.752;2023-05-18T00:53:42;11.87;;;3.97;;
22644;SDS011;11489;50.834;6.752;2023-05-18T00:56:08;8.30;;;3.60;;
22644;SDS011;11489;50.834;6.752;2023-05-18T00:58:35;8.00;;;3.43;;
22644;SDS011;11489;50.834;6.752;2023-05-18T01:01:02;9.37;;;3.80;;
22644;SDS011;11489;50.834;6.752;2023-05-18T01:03:31;7.93;;;3.83;;
22644;SDS011;11489;50.834;6.752;2023-05-18T01:05:57;8.47;;;3.67;;
22644;SDS011;11489;50.834;6.752;2023-05-18T01:08:23;10.03;;;3.37;;
22644;SDS011;11489;50.834;6.752;2023-05-18T01:10:55;6.27;;;3.90;;
22644;SDS011;11489;50.834;6.752;2023-05-18T01:13:46;6.40;;;3.30;;
22644;SDS011;11489;50.834;6.752;2023-05-18T01:16:16;5.87;;;3.27;;
22644;SDS011;11489;50.834;6.752;2023-05-18T01:18:55;8.93;;;3.80;;
22644;SDS011;11489;50.834;6.752;2023-05-18T01:24:37;13.20;;;4.10;;
22644;SDS011;11489;50.834;6.752;2023-05-18T01:27:07;6.50;;;3.53;;
22644;SDS011;11489;50.834;6.752;2023-05-18T01:29:33;11.50;;;4.33;;
22644;SDS011;11489;50.834;6.752;2023-05-18T01:32:00;7.03;;;3.70;;
22644;SDS011;11489;50.834;6.752;2023-05-18T01:34:26;6.23;;;3.83;;
22644;SDS011;11489;50.834;6.752;2023-05-18T01:36:51;7.40;;;3.40;;
22644;SDS011;11489;50.834;6.752;2023-05-18T01:39:17;4.93;;;3.30;;
22644;SDS011;11489;50.834;6.752;2023-05-18T01:42:00;7.00;;;3.73;;
22644;SDS011;11489;50.834;6.752;2023-05-18T01:52:35;5.93;;;3.30;;
22644;SDS011;11489;50.834;6.752;2023-05-18T01:55:03;8.60;;;3.53;;
22644;SDS011;11489;50.834;6.752;2023-05-18T01:57:31;7.77;;;3.43;;
22644;SDS011;11489;50.834;6.752;2023-05-18T01:59:59;7.63;;;3.57;;
22644;SDS011;11489;50.834;6.752;2023-05-18T02:02:25;10.20;;;3.73;;
22644;SDS011;11489;50.834;6.752;2023-05-18T02:04:52;6.50;;;3.83;;
22644;SDS011;11489;50.834;6.752;2023-05-18T02:07:17;5.93;;;3.07;;
22644;SDS011;11489;50.834;6.752;2023-05-18T02:09:43;8.57;;;3.30;;
22644;SDS011;11489;50.834;6.752;2023-05-18T02:12:09;10.03;;;3.90;;
22644;SDS011;11489;50.834;6.752;2023-05-18T02:14:35;7.03;;;3.47;;
22644;SDS011;11489;50.834;6.752;2023-05-18T02:17:01;9.50;;;3.77;;
22644;SDS011;11489;50.834;6.752;2023-05-18T02:19:27;10.33;;;3.80;;
22644;SDS011;11489;50.834;6.752;2023-05-18T02:21:55;6.43;;;3.87;;
22644;SDS011;11489;50.834;6.752;2023-05-18T02:24:21;12.37;;;3.90;;
22644;SDS011;11489;50.834;6.752;2023-05-18T02:26:49;6.70;;;3.87;;
22644;SDS011;11489;50.834;6.752;2023-05-18T02:29:15;7.03;;;3.90;;
22644;SDS011;11489;50.834;6.752;2023-05-18T02:31:41;7.70;;;4.07;;
22644;SDS011;11489;50.834;6.752;2023-05-18T02:34:07;10.33;;;4.30;;
22644;SDS011;11489;50.834;6.752;2023-05-18T02:36:34;7.20;;;3.80;;
22644;SDS011;11489;50.834;6.752;2023-05-18T02:39:06;7.37;;;3.93;;
22644;SDS011;11489;50.834;6.752;2023-05-18T02:41:36;7.90;;;3.73;;
22644;SDS011;11489;50.834;6.752;2023-05-18T02:44:02;6.93;;;4.00;;
22644;SDS011;11489;50.834;6.752;2023-05-18T02:46:29;8.70;;;4.43;;
22644;SDS011;11489;50.834;6.752;2023-05-18T02:48:55;7.97;;;4.20;;
22644;SDS011;11489;50.834;6.752;2023-05-18T02:51:21;12.30;;;4.60;;
22644;SDS011;11489;50.834;6.752;2023-05-18T02:53:47;9.70;;;4.53;;
22644;SDS011;11489;50.834;6.752;2023-05-18T02:56:13;9.43;;;5.00;;
22644;SDS011;11489;50.834;6.752;2023-05-18T02:58:39;10.80;;;4.77;;
22644;SDS011;11489;50.834;6.752;2023-05-18T03:01:07;11.90;;;4.70;;
22644;SDS011;11489;50.834;6.752;2023-05-18T03:03:36;10.00;;;4.60;;
22644;SDS011;11489;50.834;6.752;2023-05-18T03:06:03;8.93;;;4.73;;
22644;SDS011;11489;50.834;6.752;2023-05-18T03:08:32;8.40;;;4.37;;
22644;SDS011;11489;50.834;6.752;2023-05-18T03:10:58;8.27;;;4.63;;
22644;SDS011;11489;50.834;6.752;2023-05-18T03:13:23;7.67;;;4.30;;
22644;SDS011;11489;50.834;6.752;2023-05-18T03:15:49;9.27;;;4.30;;
22644;SDS011;11489;50.834;6.752;2023-05-18T03:18:19;8.50;;;4.10;;
22644;SDS011;11489;50.834;6.752;2023-05-18T03:20:44;11.20;;;4.13;;
22644;SDS011;11489;50.834;6.752;2023-05-18T03:23:10;8.60;;;4.33;;
22644;SDS011;11489;50.834;6.752;2023-05-18T03:25:36;8.40;;;4.23;;
22644;SDS011;11489;50.834;6.752;2023-05-18T03:28:02;8.30;;;4.00;;
22644;SDS011;11489;50.834;6.752;2023-05-18T03:30:32;7.57;;;3.53;;
22644;SDS011;11489;50.834;6.752;2023-05-18T03:32:58;9.40;;;3.60;;
22644;SDS011;11489;50.834;6.752;2023-05-18T03:35:24;5.00;;;3.30;;
22644;SDS011;11489;50.834;6.752;2023-05-18T03:37:50;5.37;;;3.63;;
22644;SDS011;11489;50.834;6.752;2023-05-18T03:40:16;5.50;;;3.37;;
22644;SDS011;11489;50.834;6.752;2023-05-18T03:42:42;8.10;;;3.37;;
22644;SDS011;11489;50.834;6.752;2023-05-18T03:45:08;7.30;;;3.97;;
22644;SDS011;11489;50.834;6.752;2023-05-18T03:47:34;9.13;;;4.27;;
22644;SDS011;11489;50.834;6.752;2023-05-18T03:50:01;8.40;;;3.53;;
22644;SDS011;11489;50.834;6.752;2023-05-18T03:52:27;9.03;;;4.07;;
22644;SDS011;11489;50.834;6.752;2023-05-18T03:54:54;7.43;;;4.00;;
22644;SDS011;11489;50.834;6.752;2023-05-18T03:57:22;7.53;;;3.50;;
22644;SDS011;11489;50.834;6.752;2023-05-18T03:59:48;9.60;;;3.83;;
22644;SDS011;11489;50.834;6.752;2023-05-18T04:02:13;7.13;;;4.30;;
22644;SDS011;11489;50.834;6.752;2023-05-18T04:04:40;6.67;;;3.87;;
22644;SDS011;11489;50.834;6.752;2023-05-18T04:07:06;5.93;;;3.50;;
22644;SDS011;11489;50.834;6.752;2023-05-18T04:09:33;5.70;;;3.20;;
22644;SDS011;11489;50.834;6.752;2023-05-18T04:12:00;6.20;;;3.77;;
22644;SDS011;11489;50.834;6.752;2023-05-18T04:14:27;7.23;;;3.97;;
22644;SDS011;11489;50.834;6.752;2023-05-18T04:16:53;5.87;;;3.63;;
22644;SDS011;11489;50.834;6.752;2023-05-18T04:19:20;5.83;;;3.70;;
22644;SDS011;11489;50.834;6.752;2023-05-18T04:21:46;7.88;;;3.72;;
22644;SDS011;11489;50.834;6.752;2023-05-18T04:24:13;6.40;;;3.75;;
22644;SDS011;11489;50.834;6.752;2023-05-18T04:26:40;7.07;;;3.83;;
22644;SDS011;11489;50.834;6.752;2023-05-18T04:29:06;7.82;;;4.20;;
22644;SDS011;11489;50.834;6.752;2023-05-18T04:31:34;6.80;;;4.13;;
22644;SDS011;11489;50.834;6.752;2023-05-18T04:34:06;5.30;;;3.70;;
22644;SDS011;11489;50.834;6.752;2023-05-18T04:36:33;10.05;;;4.13;;
22644;SDS011;11489;50.834;6.752;2023-05-18T04:38:59;9.40;;;4.05;;
22644;SDS011;11489;50.834;6.752;2023-05-18T04:41:27;11.00;;;3.92;;
22644;SDS011;11489;50.834;6.752;2023-05-18T04:43:53;8.18;;;4.15;;
22644;SDS011;11489;50.834;6.752;2023-05-18T04:46:18;7.63;;;4.00;;
22644;SDS011;11489;50.834;6.752;2023-05-18T04:48:46;9.30;;;4.35;;
22644;SDS011;11489;50.834;6.752;2023-05-18T04:51:15;6.28;;;3.92;;
22644;SDS011;11489;50.834;6.752;2023-05-18T04:53:51;10.85;;;4.55;;
22644;SDS011;11489;50.834;6.752;2023-05-18T04:56:18;8.57;;;4.40;;
22644;SDS011;11489;50.834;6.752;2023-05-18T04:58:49;7.95;;;4.50;;
22644;SDS011;11489;50.834;6.752;2023-05-18T05:01:15;9.48;;;4.28;;
22644;SDS011;11489;50.834;6.752;2023-05-18T05:03:41;11.25;;;4.55;;
22644;SDS011;11489;50.834;6.752;2023-05-18T05:06:07;8.18;;;4.32;;
22644;SDS011;11489;50.834;6.752;2023-05-18T05:08:33;5.97;;;3.95;;
22644;SDS011;11489;50.834;6.752;2023-05-18T05:11:00;7.97;;;4.70;;
22644;SDS011;11489;50.834;6.752;2023-05-18T05:13:26;6.63;;;4.25;;
22644;SDS011;11489;50.834;6.752;2023-05-18T05:15:52;10.02;;;4.18;;
22644;SDS011;11489;50.834;6.752;2023-05-18T05:18:18;6.53;;;4.28;;
22644;SDS011;11489;50.834;6.752;2023-05-18T05:20:43;9.02;;;4.47;;
22644;SDS011;11489;50.834;6.752;2023-05-18T05:23:09;7.70;;;4.50;;
22644;SDS011;11489;50.834;6.752;2023-05-18T05:25:35;9.68;;;4.50;;
22644;SDS011;11489;50.834;6.752;2023-05-18T05:28:01;7.45;;;4.00;;
22644;SDS011;11489;50.834;6.752;2023-05-18T05:30:26;9.85;;;4.72;;
22644;SDS011;11489;50.834;6.752;2023-05-18T05:32:52;11.05;;;4.93;;
22644;SDS011;11489;50.834;6.752;2023-05-18T05:35:18;7.97;;;4.57;;
22644;SDS011;11489;50.834;6.752;2023-05-18T05:37:43;8.30;;;4.68;;
22644;SDS011;11489;50.834;6.752;2023-05-18T05:40:09;7.95;;;4.90;;
22644;SDS011;11489;50.834;6.752;2023-05-18T05:42:35;10.18;;;5.13;;
22644;SDS011;11489;50.834;6.752;2023-05-18T05:45:01;7.65;;;4.70;;
22644;SDS011;11489;50.834;6.752;2023-05-18T05:47:26;7.80;;;4.57;;
22644;SDS011;11489;50.834;6.752;2023-05-18T05:49:52;7.80;;;4.38;;
22644;SDS011;11489;50.834;6.752;2023-05-18T05:52:18;9.05;;;4.93;;
22644;SDS011;11489;50.834;6.752;2023-05-18T05:54:44;9.57;;;4.80;;
22644;SDS011;11489;50.834;6.752;2023-05-18T05:57:10;7.97;;;4.55;;
22644;SDS011;11489;50.834;6.752;2023-05-18T05:59:35;7.32;;;4.47;;
22644;SDS011;11489;50.834;6.752;2023-05-18T06:02:01;11.20;;;5.03;;
22644;SDS011;11489;50.834;6.752;2023-05-18T06:04:27;10.43;;;5.18;;
22644;SDS011;11489;50.834;6.752;2023-05-18T06:06:52;10.75;;;5.45;;
22644;SDS011;11489;50.834;6.752;2023-05-18T06:09:18;10.05;;;4.93;;
22644;SDS011;11489;50.834;6.752;2023-05-18T06:11:44;9.63;;;5.38;;
22644;SDS011;11489;50.834;6.752;2023-05-18T06:14:09;8.73;;;4.72;;
22644;SDS011;11489;50.834;6.752;2023-05-18T06:16:36;13.90;;;4.72;;
22644;SDS011;11489;50.834;6.752;2023-05-18T06:19:02;9.70;;;4.63;;
22644;SDS011;11489;50.834;6.752;2023-05-18T06:21:27;11.13;;;5.22;;
22644;SDS011;11489;50.834;6.752;2023-05-18T06:23:53;9.27;;;4.75;;
22644;SDS011;11489;50.834;6.752;2023-05-18T06:26:20;9.63;;;4.93;;
22644;SDS011;11489;50.834;6.752;2023-05-18T06:28:47;8.93;;;4.70;;
22644;SDS011;11489;50.834;6.752;2023-05-18T06:31:13;13.00;;;5.25;;
22644;SDS011;11489;50.834;6.752;2023-05-18T06:33:39;10.13;;;5.15;;
22644;SDS011;11489;50.834;6.752;2023-05-18T06:36:05;14.02;;;5.55;;
22644;SDS011;11489;50.834;6.752;2023-05-18T06:38:31;9.95;;;4.53;;
22644;SDS011;11489;50.834;6.752;2023-05-18T06:40:56;9.73;;;4.55;;
22644;SDS011;11489;50.834;6.752;2023-05-18T06:43:22;9.23;;;4.75;;
22644;SDS011;11489;50.834;6.752;2023-05-18T06:45:50;9.40;;;5.00;;
22644;SDS011;11489;50.834;6.752;2023-05-18T06:48:16;8.10;;;4.80;;
22644;SDS011;11489;50.834;6.752;2023-05-18T06:50:42;12.77;;;4.93;;
22644;SDS011;11489;50.834;6.752;2023-05-18T06:53:07;8.52;;;4.60;;
22644;SDS011;11489;50.834;6.752;2023-05-18T06:55:33;8.60;;;4.80;;
22644;SDS011;11489;50.834;6.752;2023-05-18T06:57:59;12.57;;;5.32;;
22644;SDS011;11489;50.834;6.752;2023-05-18T07:00:25;12.07;;;4.63;;
22644;SDS011;11489;50.834;6.752;2023-05-18T07:02:50;11.70;;;5.13;;
22644;SDS011;11489;50.834;6.752;2023-05-18T07:05:16;9.02;;;5.20;;
22644;SDS011;11489;50.834;6.752;2023-05-18T07:07:42;10.27;;;5.07;;
22644;SDS011;11489;50.834;6.752;2023-05-18T07:10:08;10.85;;;5.03;;
22644;SDS011;11489;50.834;6.752;2023-05-18T07:12:33;9.15;;;5.10;;
22644;SDS011;11489;50.834;6.752;2023-05-18T07:14:59;14.68;;;5.85;;
22644;SDS011;11489;50.834;6.752;2023-05-18T07:17:25;9.13;;;4.95;;
22644;SDS011;11489;50.834;6.752;2023-05-18T07:19:50;15.65;;;5.60;;
22644;SDS011;11489;50.834;6.752;2023-05-18T07:22:16;14.93;;;5.40;;
22644;SDS011;11489;50.834;6.752;2023-05-18T07:24:42;11.82;;;4.68;;
22644;SDS011;11489;50.834;6.752;2023-05-18T07:27:07;13.25;;;4.85;;
22644;SDS011;11489;50.834;6.752;2023-05-18T07:29:33;9.02;;;4.88;;
22644;SDS011;11489;50.834;6.752;2023-05-18T07:31:59;11.80;;;4.47;;
22644;SDS011;11489;50.834;6.752;2023-05-18T07:34:25;13.98;;;4.80;;
22644;SDS011;11489;50.834;6.752;2023-05-18T07:36:51;9.65;;;4.13;;
22644;SDS011;11489;50.834;6.752;2023-05-18T07:39:18;10.68;;;4.35;;
22644;SDS011;11489;50.834;6.752;2023-05-18T07:41:46;12.23;;;4.47;;
22644;SDS011;11489;50.834;6.752;2023-05-18T07:44:13;7.88;;;4.45;;
22644;SDS011;11489;50.834;6.752;2023-05-18T07:46:40;10.98;;;4.32;;
22644;SDS011;11489;50.834;6.752;2023-05-18T07:49:06;8.23;;;4.15;;
22644;SDS011;11489;50.834;6.752;2023-05-18T07:51:31;10.75;;;4.50;;
22644;SDS011;11489;50.834;6.752;2023-05-18T07:53:58;10.93;;;4.80;;
22644;SDS011;11489;50.834;6.752;2023-05-18T07:56:24;11.57;;;4.60;;
22644;SDS011;11489;50.834;6.752;2023-05-18T07:58:50;9.18;;;4.55;;
22644;SDS011;11489;50.834;6.752;2023-05-18T08:01:16;10.73;;;4.65;;
22644;SDS011;11489;50.834;6.752;2023-05-18T08:03:41;10.68;;;4.70;;
22644;SDS011;11489;50.834;6.752;2023-05-18T08:06:07;11.23;;;4.60;;
22644;SDS011;11489;50.834;6.752;2023-05-18T08:08:33;13.50;;;4.90;;
22644;SDS011;11489;50.834;6.752;2023-05-18T08:11:01;8.75;;;4.53;;
22644;SDS011;11489;50.834;6.752;2023-05-18T08:13:28;10.02;;;4.30;;
22644;SDS011;11489;50.834;6.752;2023-05-18T08:15:54;13.77;;;4.05;;
22644;SDS011;11489;50.834;6.752;2023-05-18T08:18:20;8.07;;;4.05;;
22644;SDS011;11489;50.834;6.752;2023-05-18T08:20:46;7.22;;;3.95;;
22644;SDS011;11489;50.834;6.752;2023-05-18T08:23:13;7.57;;;3.97;;
22644;SDS011;11489;50.834;6.752;2023-05-18T08:25:40;10.27;;;3.63;;
22644;SDS011;11489;50.834;6.752;2023-05-18T08:28:05;9.68;;;4.55;;
22644;SDS011;11489;50.834;6.752;2023-05-18T08:30:31;7.97;;;4.07;;
22644;SDS011;11489;50.834;6.752;2023-05-18T08:32:57;10.57;;;4.28;;
22644;SDS011;11489;50.834;6.752;2023-05-18T08:35:22;9.73;;;4.60;;
22644;SDS011;11489;50.834;6.752;2023-05-18T08:37:48;11.35;;;4.47;;
22644;SDS011;11489;50.834;6.752;2023-05-18T08:40:14;7.15;;;4.00;;
22644;SDS011;11489;50.834;6.752;2023-05-18T08:45:14;10.48;;;3.60;;
22644;SDS011;11489;50.834;6.752;2023-05-18T08:47:55;9.60;;;4.55;;
22644;SDS011;11489;50.834;6.752;2023-05-18T08:50:24;6.97;;;3.55;;
22644;SDS011;11489;50.834;6.752;2023-05-18T08:52:53;9.32;;;3.88;;
22644;SDS011;11489;50.834;6.752;2023-05-18T08:55:20;10.20;;;4.05;;
22644;SDS011;11489;50.834;6.752;2023-05-18T08:57:49;9.23;;;3.85;;
22644;SDS011;11489;50.834;6.752;2023-05-18T09:00:20;9.80;;;3.90;;
22644;SDS011;11489;50.834;6.752;2023-05-18T09:02:46;9.93;;;3.97;;
22644;SDS011;11489;50.834;6.752;2023-05-18T09:05:13;9.55;;;3.53;;
22644;SDS011;11489;50.834;6.752;2023-05-18T09:07:40;8.45;;;2.88;;
22644;SDS011;11489;50.834;6.752;2023-05-18T09:10:10;4.60;;;2.83;;
22644;SDS011;11489;50.834;6.752;2023-05-18T09:12:37;6.47;;;3.20;;
22644;SDS011;11489;50.834;6.752;2023-05-18T09:15:06;9.70;;;2.97;;
22644;SDS011;11489;50.834;6.752;2023-05-18T09:17:34;9.07;;;2.92;;
22644;SDS011;11489;50.834;6.752;2023-05-18T09:20:00;9.88;;;3.63;;
22644;SDS011;11489;50.834;6.752;2023-05-18T09:22:28;11.70;;;3.35;;
22644;SDS011;11489;50.834;6.752;2023-05-18T09:24:54;9.32;;;2.95;;
22644;SDS011;11489;50.834;6.752;2023-05-18T09:27:20;7.95;;;3.28;;
22644;SDS011;11489;50.834;6.752;2023-05-18T09:29:53;7.55;;;3.22;;
22644;SDS011;11489;50.834;6.752;2023-05-18T09:32:21;8.93;;;3.72;;
22644;SDS011;11489;50.834;6.752;2023-05-18T09:34:47;8.07;;;4.03;;
22644;SDS011;11489;50.834;6.752;2023-05-18T09:37:16;9.77;;;4.03;;
22644;SDS011;11489;50.834;6.752;2023-05-18T09:39:43;6.25;;;3.47;;
22644;SDS011;11489;50.834;6.752;2023-05-18T09:42:09;7.45;;;3.38;;
22644;SDS011;11489;50.834;6.752;2023-05-18T09:44:36;9.63;;;3.30;;
22644;SDS011;11489;50.834;6.752;2023-05-18T09:47:05;7.85;;;3.00;;
22644;SDS011;11489;50.834;6.752;2023-05-18T09:49:33;7.45;;;3.45;;
22644;SDS011;11489;50.834;6.752;2023-05-18T09:51:58;8.82;;;3.28;;
22644;SDS011;11489;50.834;6.752;2023-05-18T09:54:24;8.73;;;3.05;;
22644;SDS011;11489;50.834;6.752;2023-05-18T09:56:50;8.73;;;3.05;;
22644;SDS011;11489;50.834;6.752;2023-05-18T09:59:16;8.60;;;3.13;;
22644;SDS011;11489;50.834;6.752;2023-05-18T10:01:57;8.90;;;3.20;;
22644;SDS011;11489;50.834;6.752;2023-05-18T10:04:46;6.45;;;2.75;;
22644;SDS011;11489;50.834;6.752;2023-05-18T10:07:12;8.18;;;3.03;;
22644;SDS011;11489;50.834;6.752;2023-05-18T10:09:39;5.30;;;2.80;;
22644;SDS011;11489;50.834;6.752;2023-05-18T10:12:12;7.78;;;3.22;;
22644;SDS011;11489;50.834;6.752;2023-05-18T10:14:40;6.95;;;2.58;;
22644;SDS011;11489;50.834;6.752;2023-05-18T10:17:09;5.68;;;2.88;;
22644;SDS011;11489;50.834;6.752;2023-05-18T10:19:39;9.95;;;3.10;;
22644;SDS011;11489;50.834;6.752;2023-05-18T10:22:08;6.57;;;2.60;;
22644;SDS011;11489;50.834;6.752;2023-05-18T10:24:38;6.07;;;2.60;;
22644;SDS011;11489;50.834;6.752;2023-05-18T10:27:07;8.77;;;3.38;;
22644;SDS011;11489;50.834;6.752;2023-05-18T10:29:34;5.95;;;2.42;;
22644;SDS011;11489;50.834;6.752;2023-05-18T10:32:02;6.97;;;2.65;;
22644;SDS011;11489;50.834;6.752;2023-05-18T10:34:29;8.15;;;2.95;;
22644;SDS011;11489;50.834;6.752;2023-05-18T10:37:00;5.55;;;2.53;;
22644;SDS011;11489;50.834;6.752;2023-05-18T10:39:30;6.93;;;2.95;;
22644;SDS011;11489;50.834;6.752;2023-05-18T10:41:57;5.18;;;2.53;;
22644;SDS011;11489;50.834;6.752;2023-05-18T10:44:24;6.47;;;2.60;;
22644;SDS011;11489;50.834;6.752;2023-05-18T10:46:50;5.57;;;2.50;;
22644;SDS011;11489;50.834;6.752;2023-05-18T10:49:17;6.28;;;2.33;;
22644;SDS011;11489;50.834;6.752;2023-05-18T10:51:47;6.20;;;2.60;;
22644;SDS011;11489;50.834;6.752;2023-05-18T10:54:16;7.97;;;2.53;;
22644;SDS011;11489;50.834;6.752;2023-05-18T10:56:44;7.38;;;2.28;;
22644;SDS011;11489;50.834;6.752;2023-05-18T10:59:13;7.40;;;2.70;;
22644;SDS011;11489;50.834;6.752;2023-05-18T11:01:39;6.65;;;2.65;;
22644;SDS011;11489;50.834;6.752;2023-05-18T11:04:06;8.20;;;2.58;;
22644;SDS011;11489;50.834;6.752;2023-05-18T11:06:32;7.30;;;2.90;;
22644;SDS011;11489;50.834;6.752;2023-05-18T11:08:59;6.88;;;3.00;;
22644;SDS011;11489;50.834;6.752;2023-05-18T11:11:26;7.00;;;2.95;;
22644;SDS011;11489;50.834;6.752;2023-05-18T11:13:58;3.90;;;2.40;;
22644;SDS011;11489;50.834;6.752;2023-05-18T11:16:32;8.43;;;2.78;;
22644;SDS011;11489;50.834;6.752;2023-05-18T11:19:06;7.93;;;2.85;;
22644;SDS011;11489;50.834;6.752;2023-05-18T11:27:15;8.18;;;2.45;;
22644;SDS011;11489;50.834;6.752;2023-05-18T11:29:41;5.35;;;2.50;;
22644;SDS011;11489;50.834;6.752;2023-05-18T11:34:56;9.73;;;2.70;;
22644;SDS011;11489;50.834;6.752;2023-05-18T11:42:35;3.13;;;1.80;;
22644;SDS011;11489;50.834;6.752;2023-05-18T11:45:13;9.70;;;1.92;;
22644;SDS011;11489;50.834;6.752;2023-05-18T11:47:38;7.72;;;1.85;;
22644;SDS011;11489;50.834;6.752;2023-05-18T11:50:08;5.03;;;2.35;;
22644;SDS011;11489;50.834;6.752;2023-05-18T11:52:45;7.18;;;2.08;;
22644;SDS011;11489;50.834;6.752;2023-05-18T11:55:15;6.00;;;2.13;;
22644;SDS011;11489;50.834;6.752;2023-05-18T11:57:43;6.80;;;1.95;;
22644;SDS011;11489;50.834;6.752;2023-05-18T12:00:11;7.18;;;2.20;;
22644;SDS011;11489;50.834;6.752;2023-05-18T12:02:43;6.32;;;2.25;;
22644;SDS011;11489;50.834;6.752;2023-05-18T12:05:10;7.13;;;2.70;;
22644;SDS011;11489;50.834;6.752;2023-05-18T12:07:37;5.00;;;2.00;;
22644;SDS011;11489;50.834;6.752;2023-05-18T12:12:31;4.97;;;1.80;;
22644;SDS011;11489;50.834;6.752;2023-05-18T12:14:58;5.63;;;2.00;;
22644;SDS011;11489;50.834;6.752;2023-05-18T12:17:36;5.68;;;2.28;;
22644;SDS011;11489;50.834;6.752;2023-05-18T12:20:04;5.43;;;2.13;;
22644;SDS011;11489;50.834;6.752;2023-05-18T12:22:31;7.07;;;2.70;;
22644;SDS011;11489;50.834;6.752;2023-05-18T12:24:57;6.85;;;2.50;;
22644;SDS011;11489;50.834;6.752;2023-05-18T12:27:22;5.78;;;2.00;;
22644;SDS011;11489;50.834;6.752;2023-05-18T12:29:50;4.38;;;1.88;;
22644;SDS011;11489;50.834;6.752;2023-05-18T12:32:16;4.75;;;2.10;;
22644;SDS011;11489;50.834;6.752;2023-05-18T12:34:43;5.25;;;1.92;;
22644;SDS011;11489;50.834;6.752;2023-05-18T12:37:09;5.05;;;2.30;;
22644;SDS011;11489;50.834;6.752;2023-05-18T12:39:35;7.03;;;2.00;;
22644;SDS011;11489;50.834;6.752;2023-05-18T12:42:08;5.85;;;1.80;;
22644;SDS011;11489;50.834;6.752;2023-05-18T12:44:34;6.28;;;2.35;;
22644;SDS011;11489;50.834;6.752;2023-05-18T12:47:00;4.55;;;2.13;;
22644;SDS011;11489;50.834;6.752;2023-05-18T12:49:26;7.38;;;2.47;;
22644;SDS011;11489;50.834;6.752;2023-05-18T12:51:53;7.53;;;2.67;;
22644;SDS011;11489;50.834;6.752;2023-05-18T12:54:26;7.03;;;2.35;;
22644;SDS011;11489;50.834;6.752;2023-05-18T12:56:54;8.25;;;2.42;;
22644;SDS011;11489;50.834;6.752;2023-05-18T12:59:25;4.72;;;1.92;;
22644;SDS011;11489;50.834;6.752;2023-05-18T13:01:52;5.63;;;2.00;;
22644;SDS011;11489;50.834;6.752;2023-05-18T13:04:19;4.47;;;2.15;;
22644;SDS011;11489;50.834;6.752;2023-05-18T13:06:45;5.45;;;1.90;;
22644;SDS011;11489;50.834;6.752;2023-05-18T13:09:11;4.18;;;2.13;;
22644;SDS011;11489;50.834;6.752;2023-05-18T13:11:37;6.43;;;1.80;;
22644;SDS011;11489;50.834;6.752;2023-05-18T13:14:04;5.53;;;1.88;;
22644;SDS011;11489;50.834;6.752;2023-05-18T13:16:36;5.35;;;1.75;;
22644;SDS011;11489;50.834;6.752;2023-05-18T13:19:04;5.07;;;2.20;;
22644;SDS011;11489;50.834;6.752;2023-05-18T13:21:31;7.28;;;2.30;;
22644;SDS011;11489;50.834;6.752;2023-05-18T13:23:58;5.18;;;2.50;;
22644;SDS011;11489;50.834;6.752;2023-05-18T13:26:25;6.13;;;2.13;;
22644;SDS011;11489;50.834;6.752;2023-05-18T13:28:52;5.57;;;2.10;;
22644;SDS011;11489;50.834;6.752;2023-05-18T13:31:20;5.18;;;1.95;;
22644;SDS011;11489;50.834;6.752;2023-05-18T13:33:46;7.75;;;2.38;;
22644;SDS011;11489;50.834;6.752;2023-05-18T13:36:13;5.70;;;2.13;;
22644;SDS011;11489;50.834;6.752;2023-05-18T13:38:39;2.72;;;1.55;;
22644;SDS011;11489;50.834;6.752;2023-05-18T13:41:05;5.25;;;1.92;;
22644;SDS011;11489;50.834;6.752;2023-05-18T13:43:31;5.57;;;2.65;;
22644;SDS011;11489;50.834;6.752;2023-05-18T13:45:57;5.25;;;2.15;;
22644;SDS011;11489;50.834;6.752;2023-05-18T13:48:24;5.78;;;2.50;;
22644;SDS011;11489;50.834;6.752;2023-05-18T13:50:51;4.85;;;2.25;;
22644;SDS011;11489;50.834;6.752;2023-05-18T13:53:17;5.00;;;2.00;;
22644;SDS011;11489;50.834;6.752;2023-05-18T13:55:43;5.80;;;2.40;;
22644;SDS011;11489;50.834;6.752;2023-05-18T13:58:08;6.50;;;2.22;;
22644;SDS011;11489;50.834;6.752;2023-05-18T14:00:34;6.25;;;2.40;;
22644;SDS011;11489;50.834;6.752;2023-05-18T14:03:00;7.63;;;3.05;;
22644;SDS011;11489;50.834;6.752;2023-05-18T14:05:27;8.85;;;2.85;;
22644;SDS011;11489;50.834;6.752;2023-05-18T14:07:53;8.65;;;2.63;;
22644;SDS011;11489;50.834;6.752;2023-05-18T14:10:19;7.80;;;2.78;;
22644;SDS011;11489;50.834;6.752;2023-05-18T14:12:45;6.10;;;2.58;;
22644;SDS011;11489;50.834;6.752;2023-05-18T14:15:11;6.55;;;2.60;;
22644;SDS011;11489;50.834;6.752;2023-05-18T14:17:37;6.20;;;2.60;;
22644;SDS011;11489;50.834;6.752;2023-05-18T14:20:03;6.90;;;2.40;;
22644;SDS011;11489;50.834;6.752;2023-05-18T14:22:30;5.97;;;2.67;;
22644;SDS011;11489;50.834;6.752;2023-05-18T14:24:55;7.93;;;2.85;;
22644;SDS011;11489;50.834;6.752;2023-05-18T14:27:21;7.13;;;2.47;;
22644;SDS011;11489;50.834;6.752;2023-05-18T14:29:47;4.60;;;2.40;;
22644;SDS011;11489;50.834;6.752;2023-05-18T14:32:14;6.43;;;2.53;;
22644;SDS011;11489;50.834;6.752;2023-05-18T14:34:39;6.05;;;2.50;;
22644;SDS011;11489;50.834;6.752;2023-05-18T14:37:05;10.38;;;2.30;;
22644;SDS011;11489;50.834;6.752;2023-05-18T14:39:31;6.13;;;2.72;;
22644;SDS011;11489;50.834;6.752;2023-05-18T14:41:56;7.70;;;2.80;;
22644;SDS011;11489;50.834;6.752;2023-05-18T14:44:22;7.85;;;3.00;;
22644;SDS011;11489;50.834;6.752;2023-05-18T14:46:47;9.00;;;2.72;;
22644;SDS011;11489;50.834;6.752;2023-05-18T14:49:13;6.10;;;2.60;;
22644;SDS011;11489;50.834;6.752;2023-05-18T14:51:39;7.47;;;2.50;;
22644;SDS011;11489;50.834;6.752;2023-05-18T14:54:04;5.80;;;2.50;;
22644;SDS011;11489;50.834;6.752;2023-05-18T14:56:30;5.45;;;2.20;;
22644;SDS011;11489;50.834;6.752;2023-05-18T14:58:56;6.72;;;2.78;;
22644;SDS011;11489;50.834;6.752;2023-05-18T15:01:21;6.80;;;2.65;;
22644;SDS011;11489;50.834;6.752;2023-05-18T15:03:47;8.57;;;2.83;;
22644;SDS011;11489;50.834;6.752;2023-05-18T15:06:13;7.90;;;2.67;;
22644;SDS011;11489;50.834;6.752;2023-05-18T15:08:38;7.63;;;2.70;;
22644;SDS011;11489;50.834;6.752;2023-05-18T15:11:04;10.07;;;2.65;;
22644;SDS011;11489;50.834;6.752;2023-05-18T15:13:30;7.95;;;2.80;;
22644;SDS011;11489;50.834;6.752;2023-05-18T15:15:56;7.28;;;2.72;;